Thursday, October 02, 2014
10:33 UTC
  |  Log In   |  Register Free
Airport Search:

Enterprise Municipal Airport
(KEDN)

Enterprise Municipal Airport Diagram
No Airport Diagram Available

FAA data valid effective September 18, 2014 - November 13, 2014 (unless otherwise noted).

 
 
 
 
 
 
 
 
 
 
 
 
 
 

Current Aviation Weather for Enterprise Municipal Airport (KEDN)

The most recent METAR observation for KEDN was updated at: 1015
METAR Summary (Translated METAR)
KEDN
020955Z AUTO 00000KT 10SM SCT029 SCT037 SCT047 18/18 A3001 RMK AO2
KSXS
020956Z AUTO 00000KT 8SM CLR 18/18 A3004 RMK AO2 SLP171 T01810178
(4.6 nm NE from KEDN)
KLOR
020953Z AUTO 00000KT 8SM CLR 17/17 A3001 RMK AO2 SLP158 T01720167 TSNO $
(8.3 nm NE from KEDN)
TAF Summary (Translated TAF)
KOZR
(5.2 nm SE from KLOR)
0208/0314 VRB06KT 6000 BR SCT005 SCT250 QNH2998INS BECMG 0214/0215 14009KT 9999 NSW SCT050 BKN250 QNH2995INS BECMG 0303/0304 VRB06KT 9999 BKN010 BKN250 QNH2993INS TEMPO 0309/0314 3200 BR OVC005 TX30/0220Z TN18/0211Z
  Airport Weather Conditions for KEDN

Current weather conditions are
not available for EDN


The nearest NOAA weather station
is at LOR, (8.3 nm NE from EDN)
  
 Current Weather at LOR
63° F
Fair
North winds at 0.0 mph
LOR NOAA Radar

Pressure: 30.01 in
Humidity: 97%
Wind: Calm
Dew Point: 62.1°F
Visibility: 8.00 mi


Airport Weather Forecast for KEDN

Translated METAR and TAF for KLOR
Translated METAR for KLOR (1027 UTC 02 October 2014)
found at http://aviationweather.gov/adds/metars/
 
METAR text: KLOR 020953Z AUTO 00000KT 8SM CLR 17/17 A3001 RMK AO2 SLP158 T01720167 TSNO $
Conditions at: KLOR (LOWE AHP/FT. RUC, AL, US) observed 0953 UTC 02 October 2014
Temperature: 17.2°C (63°F)
Dewpoint: 16.7°C (62°F) [RH = 97%]
Pressure (altimeter): 30.01 inches Hg (1016.3 mb)
[Sea-level pressure: 1015.8 mb]
Winds: calm
Visibility: 8 miles (13 km)
Ceiling: at least 12,000 feet AGL
Clouds: sky clear below 12,000 feet AGL
Weather:
SOME DATA ABOVE MAY BE INACCURATE!!!
"$" is an indication the sensor requires maintenance
Translated TAF for KLOR

There is no translated TAF available for this airport

Find All Airport Services Find A Hotel Find A Rental Car Find A Golf Course Find A Restaurant $100 Hamburger



FBO's on the Field
FBO Company Facility Photos Services Transportation Aviation Fuel Prices: Prices include tax
Catering Weather Repair Courtesy Rental Type 100LL JetA JetA+ MOGAS 8087
 
Enterprise Municipal Airport

This FBO has not yet been rated
FS:Epic
Last Updated: Sep-24
Login to update fuel prices
SS:
Contact Enterprise Municipal AirportMore FBO Information
 
Add another FBO Facility Photos Catering Weather Repair Courtesy Rental Type 100LL JetA JetA+ MOGAS 8087
Services Transportation Aviation Fuel Prices: Prices include tax


model-print
model-print
model-print
model-print